Portada
METAR-TAF:

METAR-TAF

Aeroports :

Armenia, Colòmbia

latitud: 04-30N, longitud: 075-43W, altitud: 1204 m

Observació

L'informe es va fer fa 15 hores i 1 minuts, a les 19:00 UTC
Vent 7 kt del Oest, variant entre Oest/Sud-Oest i Nord-Oest
Temperatura 29°C
Humitat 45%
Pressió 1016 hPa
Visibilitat 10 km o més
Escasses núvols a una alçada de 3000 ft

METAR: SKAR 021900Z 28007KT 250V310 9999 FEW030 29/16 A2999

Hora: 05:01 (10:01 UTC)


TAF: manca

Observacions i pronòstics meteorològics de més de 4000 aeroports (METAR i TAF).

Les estacions disponibles són els punts grocs i vermells al mapa.

Posi el ratolí al punt desitjat per veure el nom de l'estació.

Feu clic per veure les observacions i els pronòstics meteorològics.

Per canviar el mapa: feu clic els botons verds amb una creu de color negre per apropar; al botó verd amb un guió per allunyar la imatge; o en les fletxes verdes per a mapes adjacents.


METAR-TAF: